Rechercher aéroport 
image banner adimage banner adimage banner ad
image banner ad

45CA - Chapin Medical Pad Heliport

Situé à Corona, United States

ICAO - 45CA, IATA -

Données fournies par Airmate  

Information générale

Coordonnées: N37°20'6" W121°59'59"
Élévation : 160 feet MSL.
 
Voir autres Aéroports à California

Données opérationnelles

Special qualification required
Heure actuelle UTC:
Heure actuelle locale:
METAR: KSJC 300053Z 32010KT 10SM FEW065 SCT100 SCT160 25/14 A2987 RMK AO2 SLP115 T02500144
TAF: KSJC 292339Z 3000/3024 32009KT P6SM SCT100 FM300600 31005KT P6SM FEW150 FM301200 00000KT P6SM FEW008 FEW150 FM301500 VRB03KT P6SM FEW150 FM302100 31009KT P6SM BKN250
Voir NOTAMs / SUP AIP / TFR affectant cet aéroport [VIEW]
Fréquences de communication: [VIEW]

Pistes:

Coordonnées de l'aéroport

Adresse: Corona United States

Vue satellite de 45CA